sensor_id;sensor_type;location;lat;lon;timestamp;temperature;humidity
20068;DHT22;10194;50.824;7.134;2022-09-14T00:00:24;18.80;99.90
20068;DHT22;10194;50.824;7.134;2022-09-14T00:02:50;18.90;99.90
20068;DHT22;10194;50.824;7.134;2022-09-14T00:05:15;18.80;99.90
20068;DHT22;10194;50.824;7.134;2022-09-14T00:07:41;18.80;99.90
20068;DHT22;10194;50.824;7.134;2022-09-14T00:10:07;18.90;99.90
20068;DHT22;10194;50.824;7.134;2022-09-14T00:12:33;18.90;99.90
20068;DHT22;10194;50.824;7.134;2022-09-14T00:14:58;18.80;99.90
20068;DHT22;10194;50.824;7.134;2022-09-14T00:17:24;18.80;99.90
20068;DHT22;10194;50.824;7.134;2022-09-14T00:19:50;18.80;99.90
20068;DHT22;10194;50.824;7.134;2022-09-14T00:22:16;18.80;99.90
20068;DHT22;10194;50.824;7.134;2022-09-14T00:24:42;18.80;99.90
20068;DHT22;10194;50.824;7.134;2022-09-14T00:27:07;18.80;99.90
20068;DHT22;10194;50.824;7.134;2022-09-14T00:29:35;18.70;99.90
20068;DHT22;10194;50.824;7.134;2022-09-14T00:32:01;18.80;99.90
20068;DHT22;10194;50.824;7.134;2022-09-14T00:34:27;18.70;99.90
20068;DHT22;10194;50.824;7.134;2022-09-14T00:36:53;18.70;99.90
20068;DHT22;10194;50.824;7.134;2022-09-14T00:39:21;18.80;99.90
20068;DHT22;10194;50.824;7.134;2022-09-14T00:41:48;18.80;99.90
20068;DHT22;10194;50.824;7.134;2022-09-14T00:46:42;18.90;99.90
20068;DHT22;10194;50.824;7.134;2022-09-14T00:49:20;18.90;99.90
20068;DHT22;10194;50.824;7.134;2022-09-14T00:51:54;19.00;99.90
20068;DHT22;10194;50.824;7.134;2022-09-14T00:54:23;18.90;99.90
20068;DHT22;10194;50.824;7.134;2022-09-14T00:56:49;18.90;99.90
20068;DHT22;10194;50.824;7.134;2022-09-14T00:59:22;19.00;99.90
20068;DHT22;10194;50.824;7.134;2022-09-14T01:01:49;18.90;99.90
20068;DHT22;10194;50.824;7.134;2022-09-14T01:04:15;18.90;99.90
20068;DHT22;10194;50.824;7.134;2022-09-14T01:07:02;18.90;99.90
20068;DHT22;10194;50.824;7.134;2022-09-14T01:12:29;18.90;99.90
20068;DHT22;10194;50.824;7.134;2022-09-14T01:20:52;18.70;99.90
20068;DHT22;10194;50.824;7.134;2022-09-14T01:23:27;18.70;99.90
20068;DHT22;10194;50.824;7.134;2022-09-14T01:28:54;18.80;99.90
20068;DHT22;10194;50.824;7.134;2022-09-14T01:34:08;18.90;99.90
20068;DHT22;10194;50.824;7.134;2022-09-14T01:36:37;19.00;99.90
20068;DHT22;10194;50.824;7.134;2022-09-14T01:39:04;19.00;99.90
20068;DHT22;10194;50.824;7.134;2022-09-14T01:41:31;19.00;99.90
20068;DHT22;10194;50.824;7.134;2022-09-14T01:44:20;19.00;99.90
20068;DHT22;10194;50.824;7.134;2022-09-14T01:46:52;19.00;99.90
20068;DHT22;10194;50.824;7.134;2022-09-14T01:49:32;19.00;99.90
20068;DHT22;10194;50.824;7.134;2022-09-14T01:52:12;19.00;99.90
20068;DHT22;10194;50.824;7.134;2022-09-14T01:54:50;19.10;99.90
20068;DHT22;10194;50.824;7.134;2022-09-14T01:57:40;19.10;99.90
20068;DHT22;10194;50.824;7.134;2022-09-14T02:00:10;19.10;99.90
20068;DHT22;10194;50.824;7.134;2022-09-14T02:02:39;19.10;99.90
20068;DHT22;10194;50.824;7.134;2022-09-14T02:05:14;19.10;99.90
20068;DHT22;10194;50.824;7.134;2022-09-14T02:07:43;19.00;99.90
20068;DHT22;10194;50.824;7.134;2022-09-14T02:10:12;18.90;99.90
20068;DHT22;10194;50.824;7.134;2022-09-14T02:12:40;18.90;99.90
20068;DHT22;10194;50.824;7.134;2022-09-14T02:15:07;18.90;99.90
20068;DHT22;10194;50.824;7.134;2022-09-14T02:17:34;18.90;99.90
20068;DHT22;10194;50.824;7.134;2022-09-14T02:20:03;18.90;99.90
20068;DHT22;10194;50.824;7.134;2022-09-14T02:22:30;18.90;99.90
20068;DHT22;10194;50.824;7.134;2022-09-14T02:24:56;18.80;99.90
20068;DHT22;10194;50.824;7.134;2022-09-14T02:27:22;18.80;99.90
20068;DHT22;10194;50.824;7.134;2022-09-14T02:29:48;18.90;99.90
20068;DHT22;10194;50.824;7.134;2022-09-14T02:43:04;19.00;99.90
20068;DHT22;10194;50.824;7.134;2022-09-14T02:46:05;18.90;99.90
20068;DHT22;10194;50.824;7.134;2022-09-14T02:48:44;18.90;99.90
20068;DHT22;10194;50.824;7.134;2022-09-14T02:53:59;18.90;99.90
20068;DHT22;10194;50.824;7.134;2022-09-14T02:56:27;19.00;99.90
20068;DHT22;10194;50.824;7.134;2022-09-14T02:58:53;19.10;99.90
20068;DHT22;10194;50.824;7.134;2022-09-14T03:01:21;19.10;99.90
20068;DHT22;10194;50.824;7.134;2022-09-14T03:03:47;19.10;99.90
20068;DHT22;10194;50.824;7.134;2022-09-14T03:06:13;18.90;99.90
20068;DHT22;10194;50.824;7.134;2022-09-14T03:08:39;18.70;99.90
20068;DHT22;10194;50.824;7.134;2022-09-14T03:11:05;18.70;99.90
20068;DHT22;10194;50.824;7.134;2022-09-14T03:13:31;18.80;99.90
20068;DHT22;10194;50.824;7.134;2022-09-14T03:16:10;18.80;99.90
20068;DHT22;10194;50.824;7.134;2022-09-14T03:18:37;18.80;99.90
20068;DHT22;10194;50.824;7.134;2022-09-14T03:21:08;18.80;99.90
20068;DHT22;10194;50.824;7.134;2022-09-14T03:23:40;18.80;99.90
20068;DHT22;10194;50.824;7.134;2022-09-14T03:26:08;18.80;99.90
20068;DHT22;10194;50.824;7.134;2022-09-14T03:28:34;18.80;99.90
20068;DHT22;10194;50.824;7.134;2022-09-14T03:31:00;18.80;99.90
20068;DHT22;10194;50.824;7.134;2022-09-14T03:33:26;18.80;99.90
20068;DHT22;10194;50.824;7.134;2022-09-14T03:35:52;18.80;99.90
20068;DHT22;10194;50.824;7.134;2022-09-14T03:38:18;18.80;99.90
20068;DHT22;10194;50.824;7.134;2022-09-14T03:40:44;18.70;99.90
20068;DHT22;10194;50.824;7.134;2022-09-14T03:43:09;18.70;99.90
20068;DHT22;10194;50.824;7.134;2022-09-14T03:45:37;18.70;99.90
20068;DHT22;10194;50.824;7.134;2022-09-14T03:48:03;18.70;99.90
20068;DHT22;10194;50.824;7.134;2022-09-14T03:50:30;18.70;99.90
20068;DHT22;10194;50.824;7.134;2022-09-14T03:52:55;18.70;99.90
20068;DHT22;10194;50.824;7.134;2022-09-14T03:55:21;18.80;99.90
20068;DHT22;10194;50.824;7.134;2022-09-14T03:57:47;18.80;99.90
20068;DHT22;10194;50.824;7.134;2022-09-14T04:00:13;18.80;99.90
20068;DHT22;10194;50.824;7.134;2022-09-14T04:02:39;18.80;99.90
20068;DHT22;10194;50.824;7.134;2022-09-14T04:05:06;18.90;99.90
20068;DHT22;10194;50.824;7.134;2022-09-14T04:07:32;18.80;99.90
20068;DHT22;10194;50.824;7.134;2022-09-14T04:09:58;18.80;99.90
20068;DHT22;10194;50.824;7.134;2022-09-14T04:12:23;18.80;99.90
20068;DHT22;10194;50.824;7.134;2022-09-14T04:14:49;18.80;99.90
20068;DHT22;10194;50.824;7.134;2022-09-14T04:17:15;18.90;99.90
20068;DHT22;10194;50.824;7.134;2022-09-14T04:19:41;18.90;99.90
20068;DHT22;10194;50.824;7.134;2022-09-14T04:22:07;19.00;99.90
20068;DHT22;10194;50.824;7.134;2022-09-14T04:24:33;18.90;99.90
20068;DHT22;10194;50.824;7.134;2022-09-14T04:26:59;18.90;99.90
20068;DHT22;10194;50.824;7.134;2022-09-14T04:29:24;18.90;99.90
20068;DHT22;10194;50.824;7.134;2022-09-14T04:31:50;18.90;99.90
20068;DHT22;10194;50.824;7.134;2022-09-14T04:34:16;18.90;99.90
20068;DHT22;10194;50.824;7.134;2022-09-14T04:36:42;18.90;99.90
20068;DHT22;10194;50.824;7.134;2022-09-14T04:39:10;18.90;99.90
20068;DHT22;10194;50.824;7.134;2022-09-14T04:41:36;18.90;99.90
20068;DHT22;10194;50.824;7.134;2022-09-14T04:44:02;18.80;99.90
20068;DHT22;10194;50.824;7.134;2022-09-14T04:46:30;18.80;99.90
20068;DHT22;10194;50.824;7.134;2022-09-14T04:48:56;18.80;99.90
20068;DHT22;10194;50.824;7.134;2022-09-14T04:51:24;18.80;99.90
20068;DHT22;10194;50.824;7.134;2022-09-14T04:53:51;18.80;99.90
20068;DHT22;10194;50.824;7.134;2022-09-14T04:56:18;18.80;99.90
20068;DHT22;10194;50.824;7.134;2022-09-14T04:58:46;18.70;99.90
20068;DHT22;10194;50.824;7.134;2022-09-14T05:01:16;18.70;99.90
20068;DHT22;10194;50.824;7.134;2022-09-14T05:03:42;18.80;99.90
20068;DHT22;10194;50.824;7.134;2022-09-14T05:06:16;18.80;99.90
20068;DHT22;10194;50.824;7.134;2022-09-14T05:08:42;18.80;99.90
20068;DHT22;10194;50.824;7.134;2022-09-14T05:11:11;18.80;99.90
20068;DHT22;10194;50.824;7.134;2022-09-14T05:13:37;18.80;99.90
20068;DHT22;10194;50.824;7.134;2022-09-14T05:16:10;18.80;99.90
20068;DHT22;10194;50.824;7.134;2022-09-14T05:18:38;18.80;99.90
20068;DHT22;10194;50.824;7.134;2022-09-14T05:21:06;18.80;99.90
20068;DHT22;10194;50.824;7.134;2022-09-14T05:23:32;18.80;99.90
20068;DHT22;10194;50.824;7.134;2022-09-14T05:25:58;18.80;99.90
20068;DHT22;10194;50.824;7.134;2022-09-14T05:28:25;18.70;99.90
20068;DHT22;10194;50.824;7.134;2022-09-14T05:30:52;18.80;99.90
20068;DHT22;10194;50.824;7.134;2022-09-14T05:33:17;18.60;99.90
20068;DHT22;10194;50.824;7.134;2022-09-14T05:35:44;18.60;99.90
20068;DHT22;10194;50.824;7.134;2022-09-14T05:38:09;18.50;99.90
20068;DHT22;10194;50.824;7.134;2022-09-14T05:40:35;18.50;99.90
20068;DHT22;10194;50.824;7.134;2022-09-14T05:43:00;18.60;99.90
20068;DHT22;10194;50.824;7.134;2022-09-14T05:45:26;18.70;99.90
20068;DHT22;10194;50.824;7.134;2022-09-14T05:47:52;18.70;99.90
20068;DHT22;10194;50.824;7.134;2022-09-14T05:50:17;18.70;99.90
20068;DHT22;10194;50.824;7.134;2022-09-14T05:52:43;18.70;99.90
20068;DHT22;10194;50.824;7.134;2022-09-14T05:55:08;18.80;99.90
20068;DHT22;10194;50.824;7.134;2022-09-14T05:57:34;18.80;99.90
20068;DHT22;10194;50.824;7.134;2022-09-14T06:00:00;18.80;99.90
20068;DHT22;10194;50.824;7.134;2022-09-14T06:02:26;18.70;99.90
20068;DHT22;10194;50.824;7.134;2022-09-14T06:04:51;18.70;99.90
20068;DHT22;10194;50.824;7.134;2022-09-14T06:07:17;18.70;99.90
20068;DHT22;10194;50.824;7.134;2022-09-14T06:09:42;18.70;99.90
20068;DHT22;10194;50.824;7.134;2022-09-14T06:12:08;18.70;99.90
20068;DHT22;10194;50.824;7.134;2022-09-14T06:14:34;18.70;99.90
20068;DHT22;10194;50.824;7.134;2022-09-14T06:16:59;18.70;99.90
20068;DHT22;10194;50.824;7.134;2022-09-14T06:19:25;18.80;99.90
20068;DHT22;10194;50.824;7.134;2022-09-14T06:21:51;18.70;99.90
20068;DHT22;10194;50.824;7.134;2022-09-14T06:24:17;18.70;99.90
20068;DHT22;10194;50.824;7.134;2022-09-14T06:26:42;18.80;99.90
20068;DHT22;10194;50.824;7.134;2022-09-14T06:29:08;18.70;99.90
20068;DHT22;10194;50.824;7.134;2022-09-14T06:31:34;18.60;99.90
20068;DHT22;10194;50.824;7.134;2022-09-14T06:33:59;18.60;99.90
20068;DHT22;10194;50.824;7.134;2022-09-14T06:36:26;18.60;99.90
20068;DHT22;10194;50.824;7.134;2022-09-14T06:38:53;18.70;99.90
20068;DHT22;10194;50.824;7.134;2022-09-14T06:41:21;18.80;99.90
20068;DHT22;10194;50.824;7.134;2022-09-14T06:43:47;18.80;99.90
20068;DHT22;10194;50.824;7.134;2022-09-14T06:46:19;18.80;99.90
20068;DHT22;10194;50.824;7.134;2022-09-14T06:48:53;18.90;99.90
20068;DHT22;10194;50.824;7.134;2022-09-14T06:51:19;18.80;99.90
20068;DHT22;10194;50.824;7.134;2022-09-14T06:53:46;18.70;99.90
20068;DHT22;10194;50.824;7.134;2022-09-14T06:56:13;18.60;99.90
20068;DHT22;10194;50.824;7.134;2022-09-14T06:58:39;18.60;99.90
20068;DHT22;10194;50.824;7.134;2022-09-14T07:01:15;18.70;99.90
20068;DHT22;10194;50.824;7.134;2022-09-14T07:03:42;18.70;99.90
20068;DHT22;10194;50.824;7.134;2022-09-14T07:06:19;18.70;99.90
20068;DHT22;10194;50.824;7.134;2022-09-14T07:08:46;18.80;99.90
20068;DHT22;10194;50.824;7.134;2022-09-14T07:11:14;18.70;99.90
20068;DHT22;10194;50.824;7.134;2022-09-14T07:13:41;18.70;99.90
20068;DHT22;10194;50.824;7.134;2022-09-14T07:16:07;18.80;99.90
20068;DHT22;10194;50.824;7.134;2022-09-14T07:18:33;18.70;99.90
20068;DHT22;10194;50.824;7.134;2022-09-14T07:21:03;18.70;99.90
20068;DHT22;10194;50.824;7.134;2022-09-14T07:23:29;18.50;99.90
20068;DHT22;10194;50.824;7.134;2022-09-14T07:26:10;18.60;99.90
20068;DHT22;10194;50.824;7.134;2022-09-14T07:28:37;18.70;99.90
20068;DHT22;10194;50.824;7.134;2022-09-14T07:31:04;18.70;99.90
20068;DHT22;10194;50.824;7.134;2022-09-14T07:33:32;18.80;99.90
20068;DHT22;10194;50.824;7.134;2022-09-14T07:36:08;18.80;99.90
20068;DHT22;10194;50.824;7.134;2022-09-14T07:38:34;18.80;99.90
20068;DHT22;10194;50.824;7.134;2022-09-14T07:41:00;18.90;99.90
20068;DHT22;10194;50.824;7.134;2022-09-14T07:43:27;18.90;99.90
20068;DHT22;10194;50.824;7.134;2022-09-14T07:45:53;19.00;99.90
20068;DHT22;10194;50.824;7.134;2022-09-14T07:48:18;18.90;99.90
20068;DHT22;10194;50.824;7.134;2022-09-14T07:50:45;18.90;99.90
20068;DHT22;10194;50.824;7.134;2022-09-14T07:53:11;18.80;99.90
20068;DHT22;10194;50.824;7.134;2022-09-14T07:55:38;18.90;99.90
20068;DHT22;10194;50.824;7.134;2022-09-14T07:58:03;19.10;99.90
20068;DHT22;10194;50.824;7.134;2022-09-14T08:00:29;19.10;99.90
20068;DHT22;10194;50.824;7.134;2022-09-14T08:02:55;19.10;99.90
20068;DHT22;10194;50.824;7.134;2022-09-14T08:05:22;19.30;99.90
20068;DHT22;10194;50.824;7.134;2022-09-14T08:07:53;19.30;99.90
20068;DHT22;10194;50.824;7.134;2022-09-14T08:10:18;19.40;99.90
20068;DHT22;10194;50.824;7.134;2022-09-14T08:12:44;19.40;99.90
20068;DHT22;10194;50.824;7.134;2022-09-14T08:15:09;19.30;99.90
20068;DHT22;10194;50.824;7.134;2022-09-14T08:17:35;19.30;99.90
20068;DHT22;10194;50.824;7.134;2022-09-14T08:20:01;19.40;99.90
20068;DHT22;10194;50.824;7.134;2022-09-14T08:22:27;19.60;99.90
20068;DHT22;10194;50.824;7.134;2022-09-14T08:24:52;19.70;99.90
20068;DHT22;10194;50.824;7.134;2022-09-14T08:27:18;19.60;99.90
20068;DHT22;10194;50.824;7.134;2022-09-14T08:29:43;19.70;99.90
20068;DHT22;10194;50.824;7.134;2022-09-14T08:32:10;19.70;99.90
20068;DHT22;10194;50.824;7.134;2022-09-14T08:34:36;19.60;99.90
20068;DHT22;10194;50.824;7.134;2022-09-14T08:37:02;19.50;99.90
20068;DHT22;10194;50.824;7.134;2022-09-14T08:39:28;19.60;99.90
20068;DHT22;10194;50.824;7.134;2022-09-14T08:41:57;19.60;99.90
20068;DHT22;10194;50.824;7.134;2022-09-14T08:47:16;19.60;99.90
20068;DHT22;10194;50.824;7.134;2022-09-14T09:06:45;19.60;99.90
20068;DHT22;10194;50.824;7.134;2022-09-14T09:11:52;19.60;99.90
20068;DHT22;10194;50.824;7.134;2022-09-14T09:14:32;19.60;99.90
20068;DHT22;10194;50.824;7.134;2022-09-14T09:17:04;19.70;99.90
20068;DHT22;10194;50.824;7.134;2022-09-14T09:19:52;19.70;99.90
20068;DHT22;10194;50.824;7.134;2022-09-14T09:22:23;19.60;99.90
20068;DHT22;10194;50.824;7.134;2022-09-14T09:27:11;19.70;99.90
20068;DHT22;10194;50.824;7.134;2022-09-14T09:29:39;19.60;99.90
20068;DHT22;10194;50.824;7.134;2022-09-14T09:32:08;19.50;99.90
20068;DHT22;10194;50.824;7.134;2022-09-14T09:34:39;19.40;99.90
20068;DHT22;10194;50.824;7.134;2022-09-14T09:37:14;19.30;99.90
20068;DHT22;10194;50.824;7.134;2022-09-14T09:39:42;19.20;99.90
20068;DHT22;10194;50.824;7.134;2022-09-14T09:44:53;19.30;99.90
20068;DHT22;10194;50.824;7.134;2022-09-14T09:47:33;19.20;99.90
20068;DHT22;10194;50.824;7.134;2022-09-14T09:50:05;19.00;99.90
20068;DHT22;10194;50.824;7.134;2022-09-14T09:52:53;18.90;99.90
20068;DHT22;10194;50.824;7.134;2022-09-14T09:55:24;18.90;99.90
20068;DHT22;10194;50.824;7.134;2022-09-14T09:57:55;18.90;99.90
20068;DHT22;10194;50.824;7.134;2022-09-14T10:00:26;19.00;99.90
20068;DHT22;10194;50.824;7.134;2022-09-14T10:02:54;19.00;99.90
20068;DHT22;10194;50.824;7.134;2022-09-14T10:05:28;19.00;99.90
20068;DHT22;10194;50.824;7.134;2022-09-14T10:08:03;18.90;99.90
20068;DHT22;10194;50.824;7.134;2022-09-14T10:13:00;19.00;99.90
20068;DHT22;10194;50.824;7.134;2022-09-14T10:15:34;19.10;99.90
20068;DHT22;10194;50.824;7.134;2022-09-14T10:21:26;19.60;99.90
20068;DHT22;10194;50.824;7.134;2022-09-14T10:23:30;19.60;99.90
20068;DHT22;10194;50.824;7.134;2022-09-14T10:28:44;19.90;99.90
20068;DHT22;10194;50.824;7.134;2022-09-14T10:33:38;19.70;99.90
20068;DHT22;10194;50.824;7.134;2022-09-14T10:36:22;19.60;99.90
20068;DHT22;10194;50.824;7.134;2022-09-14T10:39:11;19.60;99.90
20068;DHT22;10194;50.824;7.134;2022-09-14T10:42:10;19.70;99.90
20068;DHT22;10194;50.824;7.134;2022-09-14T10:47:59;19.70;99.90
20068;DHT22;10194;50.824;7.134;2022-09-14T10:50:43;19.60;99.90
20068;DHT22;10194;50.824;7.134;2022-09-14T10:56:43;19.50;99.90
20068;DHT22;10194;50.824;7.134;2022-09-14T10:59:40;19.40;99.90
20068;DHT22;10194;50.824;7.134;2022-09-14T11:02:27;19.30;99.90
20068;DHT22;10194;50.824;7.134;2022-09-14T11:08:10;19.20;99.90
20068;DHT22;10194;50.824;7.134;2022-09-14T11:13:57;19.10;99.90
20068;DHT22;10194;50.824;7.134;2022-09-14T11:22:41;19.10;99.90
20068;DHT22;10194;50.824;7.134;2022-09-14T11:25:23;19.00;99.90
20068;DHT22;10194;50.824;7.134;2022-09-14T11:28:09;19.10;99.90
20068;DHT22;10194;50.824;7.134;2022-09-14T11:30:44;19.50;99.90
20068;DHT22;10194;50.824;7.134;2022-09-14T11:33:32;19.50;99.90
20068;DHT22;10194;50.824;7.134;2022-09-14T11:36:25;19.50;99.90
20068;DHT22;10194;50.824;7.134;2022-09-14T11:39:02;19.40;99.90
20068;DHT22;10194;50.824;7.134;2022-09-14T11:41:36;19.50;99.90
20068;DHT22;10194;50.824;7.134;2022-09-14T11:44:34;19.50;99.90
20068;DHT22;10194;50.824;7.134;2022-09-14T11:47:15;19.70;99.90
20068;DHT22;10194;50.824;7.134;2022-09-14T11:49:48;19.80;99.90
20068;DHT22;10194;50.824;7.134;2022-09-14T11:52:23;19.80;99.90
20068;DHT22;10194;50.824;7.134;2022-09-14T11:54:52;19.80;99.90
20068;DHT22;10194;50.824;7.134;2022-09-14T11:57:21;19.80;99.90
20068;DHT22;10194;50.824;7.134;2022-09-14T12:00:00;19.80;99.90
20068;DHT22;10194;50.824;7.134;2022-09-14T12:12:40;20.00;99.90
20068;DHT22;10194;50.824;7.134;2022-09-14T12:18:20;19.80;99.90
20068;DHT22;10194;50.824;7.134;2022-09-14T12:21:05;19.90;99.90
20068;DHT22;10194;50.824;7.134;2022-09-14T12:36:55;20.40;99.90
20068;DHT22;10194;50.824;7.134;2022-09-14T12:46:35;19.80;99.90
20068;DHT22;10194;50.824;7.134;2022-09-14T12:49:21;19.90;99.90
20068;DHT22;10194;50.824;7.134;2022-09-14T12:51:51;19.80;99.90
20068;DHT22;10194;50.824;7.134;2022-09-14T12:54:42;19.60;99.90
20068;DHT22;10194;50.824;7.134;2022-09-14T13:00:17;19.90;99.90
20068;DHT22;10194;50.824;7.134;2022-09-14T13:02:51;19.90;99.90
20068;DHT22;10194;50.824;7.134;2022-09-14T13:05:42;19.80;99.90
20068;DHT22;10194;50.824;7.134;2022-09-14T13:08:10;19.50;99.90
20068;DHT22;10194;50.824;7.134;2022-09-14T13:10:43;19.50;99.90
20068;DHT22;10194;50.824;7.134;2022-09-14T13:13:30;19.40;99.90
20068;DHT22;10194;50.824;7.134;2022-09-14T13:16:02;19.30;99.90
20068;DHT22;10194;50.824;7.134;2022-09-14T13:18:33;19.10;99.90
20068;DHT22;10194;50.824;7.134;2022-09-14T13:21:03;19.10;99.90
20068;DHT22;10194;50.824;7.134;2022-09-14T13:23:43;19.30;99.90
20068;DHT22;10194;50.824;7.134;2022-09-14T13:26:21;19.40;99.90
20068;DHT22;10194;50.824;7.134;2022-09-14T13:28:51;19.50;99.90
20068;DHT22;10194;50.824;7.134;2022-09-14T13:31:30;19.50;99.90
20068;DHT22;10194;50.824;7.134;2022-09-14T13:33:57;19.40;99.90
20068;DHT22;10194;50.824;7.134;2022-09-14T13:36:28;19.30;99.90
20068;DHT22;10194;50.824;7.134;2022-09-14T13:38:55;19.30;99.90
20068;DHT22;10194;50.824;7.134;2022-09-14T13:41:26;19.40;99.90
20068;DHT22;10194;50.824;7.134;2022-09-14T13:43:55;19.40;99.90
20068;DHT22;10194;50.824;7.134;2022-09-14T13:46:23;19.50;99.90
20068;DHT22;10194;50.824;7.134;2022-09-14T13:48:50;19.40;99.90
20068;DHT22;10194;50.824;7.134;2022-09-14T13:51:24;19.40;99.90
20068;DHT22;10194;50.824;7.134;2022-09-14T13:53:53;19.30;99.90
20068;DHT22;10194;50.824;7.134;2022-09-14T13:56:32;19.30;99.90
20068;DHT22;10194;50.824;7.134;2022-09-14T14:01:40;19.20;99.90
20068;DHT22;10194;50.824;7.134;2022-09-14T14:07:00;19.30;99.90
20068;DHT22;10194;50.824;7.134;2022-09-14T14:12:08;19.20;99.90
20068;DHT22;10194;50.824;7.134;2022-09-14T14:14:36;19.20;99.90
20068;DHT22;10194;50.824;7.134;2022-09-14T14:17:21;19.20;99.90
20068;DHT22;10194;50.824;7.134;2022-09-14T14:19:52;19.10;99.90
20068;DHT22;10194;50.824;7.134;2022-09-14T14:22:27;19.10;99.90
20068;DHT22;10194;50.824;7.134;2022-09-14T14:24:53;19.10;99.90
20068;DHT22;10194;50.824;7.134;2022-09-14T14:27:44;19.10;99.90
20068;DHT22;10194;50.824;7.134;2022-09-14T14:30:19;19.10;99.90
20068;DHT22;10194;50.824;7.134;2022-09-14T14:32:50;19.20;99.90
20068;DHT22;10194;50.824;7.134;2022-09-14T14:35:20;19.10;99.90
20068;DHT22;10194;50.824;7.134;2022-09-14T14:37:49;19.00;99.90
20068;DHT22;10194;50.824;7.134;2022-09-14T14:40:16;19.00;99.90
20068;DHT22;10194;50.824;7.134;2022-09-14T14:42:43;18.90;99.90
20068;DHT22;10194;50.824;7.134;2022-09-14T14:45:20;18.90;99.90
20068;DHT22;10194;50.824;7.134;2022-09-14T14:47:48;18.70;99.90
20068;DHT22;10194;50.824;7.134;2022-09-14T14:50:24;18.70;99.90
20068;DHT22;10194;50.824;7.134;2022-09-14T14:52:58;18.70;99.90
20068;DHT22;10194;50.824;7.134;2022-09-14T14:55:26;18.70;99.90
20068;DHT22;10194;50.824;7.134;2022-09-14T14:57:59;18.60;99.90
20068;DHT22;10194;50.824;7.134;2022-09-14T15:00:33;18.60;99.90
20068;DHT22;10194;50.824;7.134;2022-09-14T15:03:00;18.60;99.90
20068;DHT22;10194;50.824;7.134;2022-09-14T15:05:26;18.60;99.90
20068;DHT22;10194;50.824;7.134;2022-09-14T15:07:52;18.60;99.90
20068;DHT22;10194;50.824;7.134;2022-09-14T15:10:20;18.60;99.90
20068;DHT22;10194;50.824;7.134;2022-09-14T15:12:47;18.40;99.90
20068;DHT22;10194;50.824;7.134;2022-09-14T15:15:15;18.40;99.90
20068;DHT22;10194;50.824;7.134;2022-09-14T15:17:43;18.50;99.90
20068;DHT22;10194;50.824;7.134;2022-09-14T15:20:11;18.60;99.90
20068;DHT22;10194;50.824;7.134;2022-09-14T15:22:37;18.60;99.90
20068;DHT22;10194;50.824;7.134;2022-09-14T15:25:07;18.60;99.90
20068;DHT22;10194;50.824;7.134;2022-09-14T15:27:34;18.60;99.90
20068;DHT22;10194;50.824;7.134;2022-09-14T15:30:00;18.60;99.90
20068;DHT22;10194;50.824;7.134;2022-09-14T15:32:27;18.60;99.90
20068;DHT22;10194;50.824;7.134;2022-09-14T15:34:52;18.60;99.90
20068;DHT22;10194;50.824;7.134;2022-09-14T15:37:19;18.50;99.90
20068;DHT22;10194;50.824;7.134;2022-09-14T15:39:45;18.50;99.90
20068;DHT22;10194;50.824;7.134;2022-09-14T15:42:12;18.50;99.90
20068;DHT22;10194;50.824;7.134;2022-09-14T15:44:38;18.40;99.90
20068;DHT22;10194;50.824;7.134;2022-09-14T15:47:04;18.40;99.90
20068;DHT22;10194;50.824;7.134;2022-09-14T15:49:29;18.50;99.90
20068;DHT22;10194;50.824;7.134;2022-09-14T15:51:56;18.30;99.90
20068;DHT22;10194;50.824;7.134;2022-09-14T15:54:24;18.40;99.90
20068;DHT22;10194;50.824;7.134;2022-09-14T15:56:53;18.30;99.90
20068;DHT22;10194;50.824;7.134;2022-09-14T15:59:21;18.20;99.90
20068;DHT22;10194;50.824;7.134;2022-09-14T16:01:47;18.10;99.90
20068;DHT22;10194;50.824;7.134;2022-09-14T16:04:13;18.10;99.90
20068;DHT22;10194;50.824;7.134;2022-09-14T16:06:39;17.90;99.90
20068;DHT22;10194;50.824;7.134;2022-09-14T16:09:08;17.80;99.90
20068;DHT22;10194;50.824;7.134;2022-09-14T16:11:35;17.80;99.90
20068;DHT22;10194;50.824;7.134;2022-09-14T16:14:02;17.70;99.90
20068;DHT22;10194;50.824;7.134;2022-09-14T16:16:33;17.80;99.90
20068;DHT22;10194;50.824;7.134;2022-09-14T16:19:10;17.70;99.90
20068;DHT22;10194;50.824;7.134;2022-09-14T16:21:39;17.70;99.90
20068;DHT22;10194;50.824;7.134;2022-09-14T16:24:12;17.70;99.90
20068;DHT22;10194;50.824;7.134;2022-09-14T16:26:40;17.70;99.90
20068;DHT22;10194;50.824;7.134;2022-09-14T16:29:08;17.80;99.90
20068;DHT22;10194;50.824;7.134;2022-09-14T16:31:37;17.70;99.90
20068;DHT22;10194;50.824;7.134;2022-09-14T16:34:07;17.70;99.90
20068;DHT22;10194;50.824;7.134;2022-09-14T16:36:40;17.80;99.90
20068;DHT22;10194;50.824;7.134;2022-09-14T16:39:10;17.70;99.90
20068;DHT22;10194;50.824;7.134;2022-09-14T16:41:44;17.70;99.90
20068;DHT22;10194;50.824;7.134;2022-09-14T16:44:16;17.80;99.90
20068;DHT22;10194;50.824;7.134;2022-09-14T16:46:44;17.70;99.90
20068;DHT22;10194;50.824;7.134;2022-09-14T16:49:10;17.70;99.90
20068;DHT22;10194;50.824;7.134;2022-09-14T16:51:37;17.70;99.90
20068;DHT22;10194;50.824;7.134;2022-09-14T16:54:03;17.70;99.90
20068;DHT22;10194;50.824;7.134;2022-09-14T16:56:34;17.70;99.90
20068;DHT22;10194;50.824;7.134;2022-09-14T16:59:02;17.80;99.90
20068;DHT22;10194;50.824;7.134;2022-09-14T17:01:33;17.80;99.90
20068;DHT22;10194;50.824;7.134;2022-09-14T17:04:03;17.90;99.90
20068;DHT22;10194;50.824;7.134;2022-09-14T17:06:33;17.80;99.90
20068;DHT22;10194;50.824;7.134;2022-09-14T17:09:04;17.90;99.90
20068;DHT22;10194;50.824;7.134;2022-09-14T17:11:33;17.80;99.90
20068;DHT22;10194;50.824;7.134;2022-09-14T17:14:01;17.80;99.90
20068;DHT22;10194;50.824;7.134;2022-09-14T17:16:27;17.70;99.90
20068;DHT22;10194;50.824;7.134;2022-09-14T17:18:57;17.60;99.90
20068;DHT22;10194;50.824;7.134;2022-09-14T17:21:30;17.60;99.90
20068;DHT22;10194;50.824;7.134;2022-09-14T17:23:57;17.50;99.90
20068;DHT22;10194;50.824;7.134;2022-09-14T17:26:23;17.50;99.90
20068;DHT22;10194;50.824;7.134;2022-09-14T17:28:52;17.50;99.90
20068;DHT22;10194;50.824;7.134;2022-09-14T17:31:22;17.50;99.90
20068;DHT22;10194;50.824;7.134;2022-09-14T17:33:52;17.40;99.90
20068;DHT22;10194;50.824;7.134;2022-09-14T17:36:18;17.40;99.90
20068;DHT22;10194;50.824;7.134;2022-09-14T17:38:45;17.30;99.90
20068;DHT22;10194;50.824;7.134;2022-09-14T17:41:13;17.40;99.90
20068;DHT22;10194;50.824;7.134;2022-09-14T17:43:40;17.30;99.90
20068;DHT22;10194;50.824;7.134;2022-09-14T17:46:10;17.30;99.90
20068;DHT22;10194;50.824;7.134;2022-09-14T17:48:39;17.30;99.90
20068;DHT22;10194;50.824;7.134;2022-09-14T17:51:17;17.30;99.90
20068;DHT22;10194;50.824;7.134;2022-09-14T17:53:46;17.30;99.90
20068;DHT22;10194;50.824;7.134;2022-09-14T17:56:17;17.30;99.90
20068;DHT22;10194;50.824;7.134;2022-09-14T17:58:45;17.30;99.90